createdAt,value
2016-12-22T00:00:21.847Z,3.84
2016-12-22T00:01:30.548Z,3.96
2016-12-22T00:02:39.248Z,3.91
2016-12-22T00:03:47.945Z,3.82
2016-12-22T00:04:56.639Z,3.94
2016-12-22T00:06:05.344Z,3.91
2016-12-22T00:07:14.043Z,3.95
2016-12-22T00:08:22.740Z,3.88
2016-12-22T00:09:31.435Z,3.88
2016-12-22T00:10:40.167Z,3.77
2016-12-22T00:11:48.866Z,3.86
2016-12-22T00:12:57.590Z,3.78
2016-12-22T00:14:06.293Z,3.91
2016-12-22T00:15:14.991Z,3.78
2016-12-22T00:16:23.689Z,3.77
2016-12-22T00:17:32.414Z,3.76
2016-12-22T00:18:41.104Z,3.73
2016-12-22T00:19:49.801Z,3.77
2016-12-22T00:20:58.494Z,3.68
2016-12-22T00:22:07.192Z,3.68
2016-12-22T00:23:15.901Z,3.64
2016-12-22T00:24:24.597Z,3.67
2016-12-22T00:25:33.289Z,3.58
2016-12-22T00:26:41.991Z,3.63
2016-12-22T00:27:50.689Z,3.68
2016-12-22T00:28:59.388Z,3.63
2016-12-22T00:30:08.087Z,3.7
2016-12-22T00:31:16.783Z,3.58
2016-12-22T00:32:25.486Z,3.66
2016-12-22T00:33:34.183Z,3.61
2016-12-22T00:34:42.875Z,3.56
2016-12-22T00:35:51.608Z,3.64
2016-12-22T00:37:00.301Z,3.67
2016-12-22T00:38:08.998Z,3.59
2016-12-22T00:39:17.699Z,3.63
2016-12-22T00:40:26.402Z,3.55
2016-12-22T00:41:35.097Z,3.52
2016-12-22T00:42:43.848Z,3.46
2016-12-22T00:43:52.545Z,3.45
2016-12-22T00:45:01.240Z,3.33
2016-12-22T00:46:09.935Z,3.37
2016-12-22T00:47:18.631Z,3.4
2016-12-22T00:48:27.647Z,3.37
2016-12-22T00:49:36.345Z,3.27
2016-12-22T00:50:45.041Z,3.29
2016-12-22T00:51:53.738Z,3.36
2016-12-22T00:53:02.460Z,3.37
2016-12-22T00:54:11.157Z,3.33
2016-12-22T00:55:19.851Z,3.34
2016-12-22T00:56:28.551Z,3.29
2016-12-22T00:57:37.248Z,3.27
2016-12-22T00:58:45.953Z,3.37
2016-12-22T00:59:54.652Z,3.34
2016-12-22T01:01:03.349Z,3.34
2016-12-22T01:02:12.049Z,3.22
2016-12-22T01:03:20.746Z,3.24
2016-12-22T01:04:29.469Z,3.27
2016-12-22T01:05:38.175Z,3.24
2016-12-22T01:06:46.870Z,3.22
2016-12-22T01:07:55.565Z,3.21
2016-12-22T01:09:04.263Z,3.27
2016-12-22T01:10:12.965Z,3.26
2016-12-22T01:11:21.661Z,3.24
2016-12-22T01:12:30.363Z,3.19
2016-12-22T01:13:39.059Z,3.13
2016-12-22T01:14:47.757Z,3.18
2016-12-22T01:15:56.460Z,3.21
2016-12-22T01:17:05.176Z,3.16
2016-12-22T01:18:13.867Z,3.15
2016-12-22T01:19:22.565Z,3.18
2016-12-22T01:20:31.262Z,3.13
2016-12-22T01:21:39.955Z,3.12
2016-12-22T01:22:48.649Z,3.03
2016-12-22T01:23:57.368Z,3.08
2016-12-22T01:25:06.068Z,3.09
2016-12-22T01:26:14.763Z,3.13
2016-12-22T01:27:23.457Z,3.06
2016-12-22T01:28:32.150Z,3.08
2016-12-22T01:29:40.844Z,3.16
2016-12-22T01:30:49.542Z,3.15
2016-12-22T01:31:58.245Z,3.15
2016-12-22T01:33:06.970Z,3.09
2016-12-22T01:34:15.669Z,3.03
2016-12-22T01:35:24.374Z,3.06
2016-12-22T01:36:33.071Z,3.03
2016-12-22T01:37:41.773Z,3.03
2016-12-22T01:38:50.501Z,3
2016-12-22T01:39:59.227Z,3.05
2016-12-22T01:41:07.926Z,3.13
2016-12-22T01:42:16.616Z,3.09
2016-12-22T01:43:25.629Z,3.12
2016-12-22T01:44:34.324Z,3.21
2016-12-22T01:45:43.020Z,3.09
2016-12-22T01:46:51.729Z,3.13
2016-12-22T01:48:00.420Z,3.09
2016-12-22T01:49:09.117Z,3.09
2016-12-22T01:50:17.812Z,3.15
2016-12-22T01:51:26.505Z,3.13
2016-12-22T01:52:35.198Z,3.15
2016-12-22T01:53:43.893Z,3.21
2016-12-22T01:54:52.585Z,3.15
2016-12-22T01:56:01.283Z,3.13
2016-12-22T01:57:09.978Z,3.15
2016-12-22T01:58:18.672Z,3.16
2016-12-22T01:59:27.368Z,3.21
2016-12-22T02:00:36.065Z,3.15
2016-12-22T02:01:44.761Z,3.12
2016-12-22T02:02:53.496Z,3.09
2016-12-22T02:04:02.191Z,3.12
2016-12-22T02:05:10.884Z,3.11
2016-12-22T02:06:19.584Z,3.19
2016-12-22T02:07:28.623Z,3.19
2016-12-22T02:08:37.316Z,3.13
2016-12-22T02:09:46.013Z,3.15
2016-12-22T02:10:54.715Z,3.18
2016-12-22T02:12:03.413Z,3.19
2016-12-22T02:13:12.112Z,3.13
2016-12-22T02:14:20.817Z,3.16
2016-12-22T02:15:29.509Z,3.22
2016-12-22T02:16:38.207Z,3.21
2016-12-22T02:17:46.904Z,3.09
2016-12-22T02:18:55.600Z,3.15
2016-12-22T02:20:04.293Z,3.15
2016-12-22T02:21:12.992Z,3.09
2016-12-22T02:22:21.693Z,3.19
2016-12-22T02:23:30.385Z,3.15
2016-12-22T02:24:39.081Z,3.16
2016-12-22T02:25:47.808Z,3.12
2016-12-22T02:26:56.505Z,3.12
2016-12-22T02:28:05.199Z,3.15
2016-12-22T02:29:13.897Z,3.13
2016-12-22T02:30:22.592Z,3.18
2016-12-22T02:31:31.287Z,3.13
2016-12-22T02:32:39.987Z,3.18
2016-12-22T02:33:48.688Z,3.18
2016-12-22T02:34:57.387Z,3.15
2016-12-22T02:36:06.082Z,3.18
2016-12-22T02:37:14.775Z,3.22
2016-12-22T02:38:23.470Z,3.21
2016-12-22T02:39:32.164Z,3.13
2016-12-22T02:40:40.859Z,3.12
2016-12-22T02:41:49.559Z,3.18
2016-12-22T02:42:58.256Z,3.16
2016-12-22T02:44:06.961Z,3.18
2016-12-22T02:45:15.688Z,3.24
2016-12-22T02:46:24.387Z,3.19
2016-12-22T02:47:33.081Z,3.13
2016-12-22T02:48:41.772Z,3.22
2016-12-22T02:49:50.471Z,3.21
2016-12-22T02:50:59.166Z,3.19
2016-12-22T02:52:07.862Z,3.15
2016-12-22T02:53:16.554Z,3.13
2016-12-22T02:54:25.275Z,3.08
2016-12-22T02:55:33.980Z,3.08
2016-12-22T02:56:42.679Z,3.08
2016-12-22T02:57:51.374Z,3.01
2016-12-22T02:59:00.069Z,3.08
2016-12-22T03:00:08.770Z,3.06
2016-12-22T03:01:17.483Z,2.98
2016-12-22T03:02:26.179Z,3.06
2016-12-22T03:03:34.872Z,3.01
2016-12-22T03:04:43.571Z,3
2016-12-22T03:05:52.272Z,3.05
2016-12-22T03:07:00.968Z,3.11
2016-12-22T03:08:09.678Z,2.98
2016-12-22T03:09:18.376Z,3.11
2016-12-22T03:10:27.071Z,3.05
2016-12-22T03:11:35.872Z,3.09
2016-12-22T03:12:44.568Z,2.98
2016-12-22T03:13:53.261Z,3.05
2016-12-22T03:15:01.957Z,3.05
2016-12-22T03:16:10.659Z,3.03
2016-12-22T03:17:19.353Z,3.06
2016-12-22T03:18:28.046Z,3.09
2016-12-22T03:19:36.742Z,3.16
2016-12-22T03:20:45.440Z,3.11
2016-12-22T03:21:54.132Z,3.19
2016-12-22T03:23:02.838Z,3.18
2016-12-22T03:24:11.544Z,3.19
2016-12-22T03:25:20.241Z,3.27
2016-12-22T03:26:28.933Z,3.21
2016-12-22T03:27:37.627Z,3.16
2016-12-22T03:28:46.328Z,3.11
2016-12-22T03:29:55.023Z,3.12
2016-12-22T03:31:03.722Z,3.08
2016-12-22T03:32:12.415Z,3.03
2016-12-22T03:33:21.437Z,3.11
2016-12-22T03:34:30.132Z,3.12
2016-12-22T03:35:38.834Z,3.09
2016-12-22T03:36:47.531Z,3.05
2016-12-22T03:37:56.224Z,3.06
2016-12-22T03:39:04.918Z,3.05
2016-12-22T03:40:13.615Z,3.09
2016-12-22T03:41:22.312Z,3.03
2016-12-22T03:42:31.015Z,3.11
2016-12-22T03:43:39.713Z,3.08
2016-12-22T03:44:48.404Z,3.06
2016-12-22T03:45:57.105Z,3.13
2016-12-22T03:47:05.797Z,3.08
2016-12-22T03:48:14.495Z,3.09
2016-12-22T03:49:23.193Z,3.06
2016-12-22T03:50:31.887Z,3.05
2016-12-22T03:51:40.585Z,3.15
2016-12-22T03:52:49.287Z,3.09
2016-12-22T03:53:57.979Z,3.13
2016-12-22T03:55:06.701Z,3.18
2016-12-22T03:56:15.404Z,3.16
2016-12-22T03:57:24.102Z,3.13
2016-12-22T03:58:32.797Z,3.16
2016-12-22T03:59:41.492Z,3.05
2016-12-22T04:00:50.189Z,3.03
2016-12-22T04:01:58.883Z,2.98
2016-12-22T04:03:07.578Z,3.05
2016-12-22T04:04:16.277Z,2.91
2016-12-22T04:05:24.976Z,3.08
2016-12-22T04:06:33.675Z,3.08
2016-12-22T04:07:42.370Z,2.98
2016-12-22T04:08:51.068Z,3.03
2016-12-22T04:09:59.760Z,3
2016-12-22T04:11:08.484Z,2.97
2016-12-22T04:12:17.180Z,2.95
2016-12-22T04:13:25.876Z,2.95
2016-12-22T04:14:34.569Z,2.93
2016-12-22T04:15:43.265Z,2.94
2016-12-22T04:16:51.962Z,2.9
2016-12-22T04:18:00.656Z,2.91
2016-12-22T04:19:09.361Z,2.94
2016-12-22T04:20:18.075Z,2.93
2016-12-22T04:21:26.768Z,2.91
2016-12-22T04:22:35.461Z,2.95
2016-12-22T04:23:44.480Z,2.88
2016-12-22T04:24:53.177Z,3.03
2016-12-22T04:26:01.882Z,2.94
2016-12-22T04:27:10.583Z,2.9
2016-12-22T04:28:19.280Z,2.88
2016-12-22T04:29:27.973Z,3.01
2016-12-22T04:30:36.671Z,2.88
2016-12-22T04:31:45.373Z,2.97
2016-12-22T04:32:54.074Z,2.88
2016-12-22T04:34:02.766Z,2.83
2016-12-22T04:35:11.465Z,2.93
2016-12-22T04:36:20.164Z,2.93
2016-12-22T04:37:28.868Z,2.93
2016-12-22T04:38:37.567Z,2.93
2016-12-22T04:39:46.270Z,2.88
2016-12-22T04:40:54.967Z,2.76
2016-12-22T04:42:03.978Z,2.83
2016-12-22T04:43:12.678Z,2.75
2016-12-22T04:44:21.379Z,2.73
2016-12-22T04:45:30.078Z,2.7
2016-12-22T04:46:38.776Z,2.76
2016-12-22T04:47:47.469Z,2.73
2016-12-22T04:48:56.163Z,2.76
2016-12-22T04:50:04.860Z,2.8
2016-12-22T04:51:13.590Z,2.79
2016-12-22T04:52:22.599Z,2.9
2016-12-22T04:53:31.301Z,2.79
2016-12-22T04:54:39.997Z,2.72
2016-12-22T04:55:48.691Z,2.85
2016-12-22T04:56:57.385Z,2.75
2016-12-22T04:58:06.080Z,2.77
2016-12-22T04:59:14.786Z,2.87
2016-12-22T05:00:23.490Z,2.79
2016-12-22T05:01:32.184Z,2.75
2016-12-22T05:02:40.878Z,2.77
2016-12-22T05:03:49.572Z,2.75
2016-12-22T05:04:58.263Z,2.73
2016-12-22T05:06:06.958Z,2.73
2016-12-22T05:07:15.657Z,2.7
2016-12-22T05:08:24.365Z,2.62
2016-12-22T05:09:33.061Z,2.62
2016-12-22T05:10:41.758Z,2.65
2016-12-22T05:11:50.453Z,2.7
2016-12-22T05:12:59.146Z,2.59
2016-12-22T05:14:07.844Z,2.51
2016-12-22T05:15:16.542Z,2.58
2016-12-22T05:16:25.240Z,2.61
2016-12-22T05:17:33.935Z,2.54
2016-12-22T05:18:42.633Z,2.58
2016-12-22T05:19:51.331Z,2.59
2016-12-22T05:21:00.025Z,2.55
2016-12-22T05:22:08.721Z,2.47
2016-12-22T05:23:17.427Z,2.5
2016-12-22T05:24:26.119Z,2.47
2016-12-22T05:25:34.815Z,2.52
2016-12-22T05:26:43.508Z,2.5
2016-12-22T05:27:52.206Z,2.51
2016-12-22T05:29:00.901Z,2.52
2016-12-22T05:30:09.596Z,2.52
2016-12-22T05:31:18.291Z,2.47
2016-12-22T05:32:26.990Z,2.5
2016-12-22T05:33:35.689Z,2.5
2016-12-22T05:34:44.436Z,2.52
2016-12-22T05:35:53.133Z,2.47
2016-12-22T05:37:01.830Z,2.47
2016-12-22T05:38:10.526Z,2.43
2016-12-22T05:39:19.227Z,2.43
2016-12-22T05:40:27.924Z,2.5
2016-12-22T05:41:36.619Z,2.52
2016-12-22T05:42:45.312Z,2.51
2016-12-22T05:43:54.012Z,2.46
2016-12-22T05:45:02.705Z,2.54
2016-12-22T05:46:11.399Z,2.54
2016-12-22T05:47:20.095Z,2.59
2016-12-22T05:48:28.792Z,2.59
2016-12-22T05:49:37.494Z,2.55
2016-12-22T05:50:46.191Z,2.59
2016-12-22T05:51:54.887Z,2.58
2016-12-22T05:53:03.582Z,2.62
2016-12-22T05:54:12.275Z,2.55
2016-12-22T05:55:20.969Z,2.55
2016-12-22T05:56:29.663Z,2.52
2016-12-22T05:57:38.359Z,2.54
2016-12-22T05:58:47.057Z,2.52
2016-12-22T05:59:55.761Z,2.62
2016-12-22T06:01:04.458Z,2.52
2016-12-22T06:02:13.155Z,2.52
2016-12-22T06:03:21.848Z,2.52
2016-12-22T06:04:30.543Z,2.51
2016-12-22T06:05:39.244Z,2.51
2016-12-22T06:06:47.942Z,2.47
2016-12-22T06:07:56.634Z,2.46
2016-12-22T06:09:05.330Z,2.46
2016-12-22T06:10:14.029Z,2.39
2016-12-22T06:11:22.755Z,2.46
2016-12-22T06:12:31.449Z,2.41
2016-12-22T06:13:40.147Z,2.43
2016-12-22T06:14:48.844Z,2.41
2016-12-22T06:15:57.537Z,2.39
2016-12-22T06:17:06.228Z,2.41
2016-12-22T06:18:14.923Z,2.39
2016-12-22T06:19:23.618Z,2.4
2016-12-22T06:20:32.310Z,2.34
2016-12-22T06:21:41.008Z,2.36
2016-12-22T06:22:49.709Z,2.39
2016-12-22T06:23:58.406Z,2.21
2016-12-22T06:25:07.116Z,2.21
2016-12-22T06:26:15.812Z,2.1
2016-12-22T06:27:24.513Z,2.04
2016-12-22T06:28:33.213Z,2.01
2016-12-22T06:29:41.908Z,1.97
2016-12-22T06:30:50.602Z,1.89
2016-12-22T06:31:59.299Z,1.84
2016-12-22T06:33:07.998Z,1.86
2016-12-22T06:34:16.694Z,1.75
2016-12-22T06:35:25.393Z,1.75
2016-12-22T06:36:34.088Z,1.74
2016-12-22T06:37:42.786Z,1.82
2016-12-22T06:38:51.485Z,1.82
2016-12-22T06:40:00.180Z,1.74
2016-12-22T06:41:08.879Z,1.78
2016-12-22T06:42:17.575Z,1.81
2016-12-22T06:43:26.274Z,1.81
2016-12-22T06:44:34.978Z,1.85
2016-12-22T06:45:43.675Z,1.76
2016-12-22T06:46:52.370Z,1.74
2016-12-22T06:48:01.067Z,1.71
2016-12-22T06:49:10.078Z,1.78
2016-12-22T06:50:18.779Z,1.74
2016-12-22T06:51:27.478Z,1.81
2016-12-22T06:52:36.171Z,1.71
2016-12-22T06:53:44.869Z,1.7
2016-12-22T06:54:53.577Z,1.71
2016-12-22T06:56:02.271Z,1.76
2016-12-22T06:57:10.972Z,1.76
2016-12-22T06:58:19.666Z,1.74
2016-12-22T06:59:28.399Z,1.61
2016-12-22T07:00:37.095Z,1.61
2016-12-22T07:01:45.795Z,1.7
2016-12-22T07:02:54.492Z,1.71
2016-12-22T07:04:03.186Z,1.71
2016-12-22T07:05:11.886Z,1.84
2016-12-22T07:06:20.585Z,1.79
2016-12-22T07:07:29.280Z,1.92
2016-12-22T07:08:37.974Z,1.85
2016-12-22T07:09:46.670Z,1.76
2016-12-22T07:10:55.367Z,1.79
2016-12-22T07:12:04.070Z,1.81
2016-12-22T07:13:13.077Z,1.76
2016-12-22T07:14:21.782Z,1.74
2016-12-22T07:15:30.480Z,1.74
2016-12-22T07:16:39.183Z,1.7
2016-12-22T07:17:47.875Z,1.7
2016-12-22T07:18:56.584Z,1.79
2016-12-22T07:20:05.594Z,1.67
2016-12-22T07:21:14.296Z,1.78
2016-12-22T07:22:23.031Z,1.79
2016-12-22T07:23:31.755Z,1.88
2016-12-22T07:24:40.457Z,1.86
2016-12-22T07:25:49.153Z,1.93
2016-12-22T07:26:58.164Z,1.85
2016-12-22T07:28:06.861Z,1.79
2016-12-22T07:29:15.556Z,1.76
2016-12-22T07:30:24.578Z,1.75
2016-12-22T07:31:33.279Z,1.76
2016-12-22T07:32:41.976Z,1.76
2016-12-22T07:33:50.683Z,1.76
2016-12-22T07:34:59.384Z,1.71
2016-12-22T07:36:08.078Z,1.74
2016-12-22T07:37:16.772Z,1.64
2016-12-22T07:38:25.470Z,1.74
2016-12-22T07:39:34.168Z,1.7
2016-12-22T07:40:42.865Z,1.78
2016-12-22T07:41:51.560Z,1.75
2016-12-22T07:43:00.258Z,1.75
2016-12-22T07:44:08.948Z,1.75
2016-12-22T07:45:17.954Z,1.75
2016-12-22T07:46:26.652Z,1.71
2016-12-22T07:47:36.014Z,1.74
2016-12-22T07:48:44.710Z,1.68
2016-12-22T07:49:53.409Z,1.64
2016-12-22T07:51:02.104Z,1.61
2016-12-22T07:52:10.799Z,1.52
2016-12-22T07:53:19.493Z,1.49
2016-12-22T07:54:28.194Z,1.4
2016-12-22T07:55:36.900Z,1.34
2016-12-22T07:56:45.595Z,1.36
2016-12-22T07:57:54.624Z,1.27
2016-12-22T07:59:03.323Z,1.3
2016-12-22T08:00:12.019Z,1.25
2016-12-22T08:01:20.712Z,1.21
2016-12-22T08:02:29.411Z,1.06
2016-12-22T08:03:38.107Z,1.12
2016-12-22T08:04:46.805Z,1.07
2016-12-22T08:05:55.497Z,1.14
2016-12-22T08:07:04.503Z,1.07
2016-12-22T08:08:13.202Z,1.16
2016-12-22T08:09:21.905Z,1.22
2016-12-22T08:10:30.598Z,1.09
2016-12-22T08:11:39.302Z,1.18
2016-12-22T08:12:48.003Z,1.24
2016-12-22T08:13:56.700Z,1.13
2016-12-22T08:15:06.066Z,1.24
2016-12-22T08:16:14.762Z,1.21
2016-12-22T08:17:23.460Z,1.3
2016-12-22T08:18:32.172Z,1.21
2016-12-22T08:19:41.207Z,1.24
2016-12-22T08:20:49.953Z,1.28
2016-12-22T08:21:58.648Z,1.31
2016-12-22T08:23:07.706Z,1.39
2016-12-22T08:24:16.398Z,1.43
2016-12-22T08:25:25.091Z,1.48
2016-12-22T08:26:34.111Z,1.43
2016-12-22T08:27:42.812Z,1.6
2016-12-22T08:28:51.519Z,1.6
2016-12-22T08:30:00.214Z,1.63
2016-12-22T08:31:08.938Z,1.75
2016-12-22T08:32:17.633Z,1.76
2016-12-22T08:33:26.330Z,1.76
2016-12-22T08:34:35.022Z,1.76
2016-12-22T08:35:44.062Z,1.78
2016-12-22T08:36:52.753Z,1.84
2016-12-22T08:38:01.450Z,1.81
2016-12-22T08:39:10.142Z,1.93
2016-12-22T08:40:18.847Z,1.93
2016-12-22T08:41:27.541Z,1.95
2016-12-22T08:42:36.241Z,1.98
2016-12-22T08:43:44.946Z,2.01
2016-12-22T08:44:53.685Z,1.97
2016-12-22T08:46:02.388Z,1.97
2016-12-22T08:47:11.086Z,2.01
2016-12-22T08:48:20.104Z,2.04
2016-12-22T08:49:28.800Z,2.03
2016-12-22T08:50:37.499Z,2.03
2016-12-22T08:51:46.197Z,2.03
2016-12-22T08:52:54.889Z,2.04
2016-12-22T08:54:03.592Z,2
2016-12-22T08:55:12.287Z,1.97
2016-12-22T08:56:20.991Z,2.01
2016-12-22T08:57:29.694Z,2.04
2016-12-22T08:58:38.391Z,2.04
2016-12-22T08:59:47.084Z,1.93
2016-12-22T09:00:55.784Z,1.95
2016-12-22T09:02:04.480Z,1.85
2016-12-22T09:03:13.174Z,1.86
2016-12-22T09:04:22.182Z,1.88
2016-12-22T09:05:31.192Z,1.78
2016-12-22T09:06:39.891Z,1.76
2016-12-22T09:07:48.905Z,1.61
2016-12-22T09:08:57.605Z,1.6
2016-12-22T09:10:06.303Z,1.57
2016-12-22T09:11:14.996Z,1.49
2016-12-22T09:12:23.700Z,1.46
2016-12-22T09:13:32.400Z,1.34
2016-12-22T09:14:41.095Z,1.34
2016-12-22T09:15:49.790Z,1.21
2016-12-22T09:16:58.482Z,1.25
2016-12-22T09:20:07.518Z,1.14
2016-12-22T09:23:17.034Z,1.12
2016-12-22T09:24:25.735Z,1.09
2016-12-22T09:25:34.431Z,1.07
2016-12-22T09:26:43.128Z,1.2
2016-12-22T09:27:51.830Z,1.21
2016-12-22T09:29:00.525Z,1.28
2016-12-22T09:30:09.224Z,1.18
2016-12-22T09:31:17.920Z,1.32
2016-12-22T09:32:26.619Z,1.32
2016-12-22T09:33:35.317Z,1.48
2016-12-22T09:34:44.017Z,1.49
2016-12-22T09:35:52.750Z,1.52
2016-12-22T09:37:01.442Z,1.57
2016-12-22T09:38:10.139Z,1.63
2016-12-22T09:39:18.837Z,1.66
2016-12-22T09:40:27.531Z,1.71
2016-12-22T09:41:36.253Z,1.78
2016-12-22T09:42:44.953Z,1.78
2016-12-22T09:43:53.680Z,1.67
2016-12-22T09:45:02.375Z,1.71
2016-12-22T09:46:11.071Z,1.71
2016-12-22T09:47:19.776Z,1.71
2016-12-22T09:48:28.486Z,1.71
2016-12-22T09:49:37.180Z,1.71
2016-12-22T09:50:45.878Z,1.67
2016-12-22T09:51:54.577Z,1.75
2016-12-22T09:53:03.269Z,1.82
2016-12-22T09:54:11.974Z,1.84
2016-12-22T09:55:20.695Z,1.92
2016-12-22T09:56:29.398Z,1.89
2016-12-22T09:57:38.090Z,1.98
2016-12-22T09:58:46.785Z,1.98
2016-12-22T09:59:55.483Z,2.04
2016-12-22T10:01:04.188Z,2.04
2016-12-22T10:02:12.884Z,2
2016-12-22T10:03:21.577Z,2.15
2016-12-22T10:04:30.277Z,2.14
2016-12-22T10:05:39.006Z,2.22
2016-12-22T10:06:47.700Z,2.22
2016-12-22T10:07:56.396Z,2.25
2016-12-22T10:09:05.097Z,2.28
2016-12-22T10:10:13.792Z,2.33
2016-12-22T10:11:22.489Z,2.33
2016-12-22T10:12:31.184Z,2.37
2016-12-22T10:13:39.880Z,2.41
2016-12-22T10:14:48.578Z,2.43
2016-12-22T10:15:57.272Z,2.52
2016-12-22T10:17:05.968Z,2.54
2016-12-22T10:18:14.675Z,2.5
2016-12-22T10:19:23.410Z,2.55
2016-12-22T10:20:32.125Z,2.58
2016-12-22T10:21:40.824Z,2.59
2016-12-22T10:22:49.516Z,2.61
2016-12-22T10:23:58.219Z,2.58
2016-12-22T10:25:06.924Z,2.59
2016-12-22T10:26:15.620Z,2.69
2016-12-22T10:27:24.320Z,2.59
2016-12-22T10:28:33.015Z,2.65
2016-12-22T10:29:41.712Z,2.64
2016-12-22T10:30:50.406Z,2.62
2016-12-22T10:31:59.114Z,2.62
2016-12-22T10:33:07.819Z,2.68
2016-12-22T10:34:16.515Z,2.76
2016-12-22T10:35:25.211Z,2.94
2016-12-22T10:36:33.907Z,3.09
2016-12-22T10:37:42.613Z,3.12
2016-12-22T10:38:51.308Z,3.31
2016-12-22T10:40:00.005Z,3.46
2016-12-22T10:41:08.701Z,3.55
2016-12-22T10:42:17.395Z,3.58
2016-12-22T10:43:26.092Z,3.74
2016-12-22T10:44:34.792Z,3.78
2016-12-22T10:45:43.491Z,3.91
2016-12-22T10:46:52.191Z,3.89
2016-12-22T10:48:00.889Z,3.85
2016-12-22T10:49:09.584Z,3.94
2016-12-22T10:50:18.284Z,4
2016-12-22T10:51:27.299Z,4.03
2016-12-22T10:52:36.000Z,4.14
2016-12-22T10:53:44.701Z,4.18
2016-12-22T10:54:53.401Z,4.24
2016-12-22T10:56:02.099Z,4.28
2016-12-22T10:57:10.795Z,4.32
2016-12-22T10:58:19.496Z,4.31
2016-12-22T10:59:28.201Z,4.39
2016-12-22T11:00:36.933Z,4.39
2016-12-22T11:01:45.634Z,4.39
2016-12-22T11:02:54.334Z,4.32
2016-12-22T11:04:03.034Z,4.4
2016-12-22T11:05:11.749Z,4.49
2016-12-22T11:06:20.453Z,4.5
2016-12-22T11:07:29.160Z,4.48
2016-12-22T11:08:37.854Z,4.63
2016-12-22T11:09:46.553Z,4.66
2016-12-22T11:10:55.281Z,4.78
2016-12-22T11:12:03.985Z,4.79
2016-12-22T11:13:12.688Z,4.92
2016-12-22T11:14:21.394Z,4.97
2016-12-22T11:15:30.095Z,4.97
2016-12-22T11:16:39.118Z,5
2016-12-22T11:17:47.819Z,4.98
2016-12-22T11:18:56.519Z,5.07
2016-12-22T11:20:05.221Z,5.07
2016-12-22T11:21:13.921Z,5.08
2016-12-22T11:22:22.625Z,5.18
2016-12-22T11:23:31.350Z,5.18
2016-12-22T11:24:40.053Z,5.16
2016-12-22T11:25:48.752Z,5.04
2016-12-22T11:26:57.480Z,5.05
2016-12-22T11:28:06.183Z,5.1
2016-12-22T11:29:14.985Z,5.1
2016-12-22T11:30:23.685Z,5.15
2016-12-22T11:31:32.387Z,5.12
2016-12-22T11:32:41.090Z,5.07
2016-12-22T11:33:49.793Z,5.15
2016-12-22T11:34:58.508Z,5.15
2016-12-22T11:36:07.237Z,5.2
2016-12-22T11:37:15.968Z,5.2
2016-12-22T11:38:24.668Z,5.2
2016-12-22T11:39:33.394Z,5.28
2016-12-22T11:40:42.091Z,5.26
2016-12-22T11:41:50.822Z,5.34
2016-12-22T11:42:59.521Z,5.41
2016-12-22T11:44:08.233Z,5.49
2016-12-22T11:45:16.935Z,5.38
2016-12-22T11:46:25.632Z,5.46
2016-12-22T11:47:34.332Z,5.31
2016-12-22T11:48:43.031Z,5.23
2016-12-22T11:49:51.733Z,5.26
2016-12-22T11:51:00.435Z,5.2
2016-12-22T11:52:09.133Z,5.25
2016-12-22T11:53:17.840Z,5.23
2016-12-22T11:54:26.543Z,5.29
2016-12-22T11:55:35.245Z,5.31
2016-12-22T11:56:43.945Z,5.46
2016-12-22T11:57:52.644Z,5.34
2016-12-22T11:59:01.347Z,5.31
2016-12-22T12:00:10.684Z,5.38
2016-12-22T12:01:19.386Z,5.29
2016-12-22T12:02:28.085Z,5.25
2016-12-22T12:03:36.811Z,5.2
2016-12-22T12:04:45.512Z,5.31
2016-12-22T12:05:54.210Z,5.23
2016-12-22T12:07:02.915Z,5.25
2016-12-22T12:08:11.614Z,5.22
2016-12-22T12:09:20.329Z,5.26
2016-12-22T12:10:29.029Z,5.22
2016-12-22T12:11:37.731Z,5.22
2016-12-22T12:12:46.432Z,5.31
2016-12-22T12:13:55.132Z,5.28
2016-12-22T12:15:03.830Z,5.34
2016-12-22T12:16:12.539Z,5.41
2016-12-22T12:17:21.551Z,5.41
2016-12-22T12:18:30.572Z,5.49
2016-12-22T12:19:39.271Z,5.49
2016-12-22T12:20:47.969Z,5.47
2016-12-22T12:21:56.668Z,5.37
2016-12-22T12:23:05.690Z,5.46
2016-12-22T12:24:14.390Z,5.46
2016-12-22T12:25:23.097Z,5.51
2016-12-22T12:26:31.796Z,5.46
2016-12-22T12:27:40.501Z,5.38
2016-12-22T12:28:49.201Z,5.37
2016-12-22T12:29:57.904Z,5.38
2016-12-22T12:31:06.606Z,5.33
2016-12-22T12:32:15.305Z,5.23
2016-12-22T12:33:24.337Z,5.2
2016-12-22T12:34:33.038Z,5
2016-12-22T12:35:41.734Z,5.05
2016-12-22T12:36:50.433Z,4.86
2016-12-22T12:37:59.133Z,4.95
2016-12-22T12:39:07.864Z,5.04
2016-12-22T12:40:16.565Z,5.02
2016-12-22T12:41:25.266Z,5.02
2016-12-22T12:42:33.963Z,4.97
2016-12-22T12:43:42.662Z,4.83
2016-12-22T12:44:51.397Z,4.74
2016-12-22T12:46:00.096Z,4.64
2016-12-22T12:47:08.797Z,4.48
2016-12-22T12:48:17.496Z,4.49
2016-12-22T12:49:26.196Z,4.5
2016-12-22T12:50:34.893Z,4.5
2016-12-22T12:51:43.594Z,4.45
2016-12-22T12:52:52.296Z,4.42
2016-12-22T12:54:00.998Z,4.32
2016-12-22T12:55:09.713Z,4.3
2016-12-22T12:56:18.415Z,4.1
2016-12-22T12:57:27.115Z,4.03
2016-12-22T12:58:35.816Z,3.88
2016-12-22T12:59:44.531Z,3.82
2016-12-22T13:00:53.236Z,3.76
2016-12-22T13:02:01.941Z,3.81
2016-12-22T13:03:10.956Z,3.74
2016-12-22T13:04:19.657Z,3.68
2016-12-22T13:05:28.351Z,3.61
2016-12-22T13:06:37.359Z,3.7
2016-12-22T13:07:46.059Z,3.63
2016-12-22T13:08:54.760Z,3.56
2016-12-22T13:10:03.461Z,3.55
2016-12-22T13:11:12.154Z,3.61
2016-12-22T13:12:20.853Z,3.58
2016-12-22T13:13:29.549Z,3.55
2016-12-22T13:14:38.249Z,3.56
2016-12-22T13:15:46.951Z,3.45
2016-12-22T13:16:55.681Z,3.45
2016-12-22T13:18:04.381Z,3.37
2016-12-22T13:19:13.083Z,3.43
2016-12-22T13:20:21.779Z,3.41
2016-12-22T13:21:30.479Z,3.34
2016-12-22T13:22:39.176Z,3.37
2016-12-22T13:23:47.875Z,3.34
2016-12-22T13:24:56.576Z,3.34
2016-12-22T13:26:05.304Z,3.27
2016-12-22T13:27:14.313Z,3.31
2016-12-22T13:28:23.014Z,3.31
2016-12-22T13:29:31.710Z,3.3
2016-12-22T13:30:40.436Z,3.34
2016-12-22T13:31:49.134Z,3.33
2016-12-22T13:32:57.833Z,3.3
2016-12-22T13:34:06.534Z,3.3
2016-12-22T13:35:15.230Z,3.24
2016-12-22T13:36:23.928Z,3.16
2016-12-22T13:37:32.649Z,3.29
2016-12-22T13:38:41.363Z,3.21
2016-12-22T13:39:50.096Z,3.18
2016-12-22T13:40:58.797Z,3.09
2016-12-22T13:42:07.502Z,3.06
2016-12-22T13:43:16.202Z,3
2016-12-22T13:44:24.895Z,3
2016-12-22T13:45:33.600Z,3.01
2016-12-22T13:46:42.295Z,3
2016-12-22T13:47:50.996Z,3
2016-12-22T13:48:59.690Z,3.06
2016-12-22T13:50:08.389Z,3.09
2016-12-22T13:51:17.087Z,3
2016-12-22T13:52:25.786Z,3
2016-12-22T13:53:34.483Z,2.98
2016-12-22T13:54:43.183Z,2.95
2016-12-22T13:55:52.195Z,3
2016-12-22T13:57:00.889Z,2.91
2016-12-22T13:58:09.640Z,2.93
2016-12-22T13:59:18.340Z,3.03
2016-12-22T14:00:27.040Z,2.9
2016-12-22T14:01:35.744Z,2.97
2016-12-22T14:02:44.445Z,2.98
2016-12-22T14:03:53.145Z,2.95
2016-12-22T14:05:01.841Z,3.05
2016-12-22T14:06:10.857Z,2.97
2016-12-22T14:07:19.556Z,3.09
2016-12-22T14:08:28.255Z,2.97
2016-12-22T14:09:36.962Z,2.98
2016-12-22T14:10:45.660Z,3
2016-12-22T14:11:54.362Z,3.06
2016-12-22T14:13:03.054Z,3.05
2016-12-22T14:14:11.761Z,3.08
2016-12-22T14:15:20.458Z,3.01
2016-12-22T14:16:29.156Z,3
2016-12-22T14:17:37.857Z,2.93
2016-12-22T14:18:46.555Z,2.94
2016-12-22T14:19:55.253Z,3.01
2016-12-22T14:21:03.945Z,2.87
2016-12-22T14:22:12.644Z,2.93
2016-12-22T14:23:21.340Z,2.87
2016-12-22T14:24:30.038Z,2.83
2016-12-22T14:25:38.736Z,2.83
2016-12-22T14:26:47.434Z,2.87
2016-12-22T14:27:56.128Z,2.88
2016-12-22T14:29:04.832Z,2.8
2016-12-22T14:30:13.531Z,2.94
2016-12-22T14:31:22.223Z,2.77
2016-12-22T14:32:30.921Z,2.91
2016-12-22T14:33:39.645Z,2.87
2016-12-22T14:34:48.344Z,2.98
2016-12-22T14:35:57.038Z,2.88
2016-12-22T14:37:05.734Z,2.93
2016-12-22T14:38:14.429Z,3.03
2016-12-22T14:39:23.122Z,2.91
2016-12-22T14:40:31.815Z,3.05
2016-12-22T14:41:40.511Z,2.98
2016-12-22T14:42:49.206Z,2.9
2016-12-22T14:43:57.901Z,2.88
2016-12-22T14:45:06.617Z,2.97
2016-12-22T14:46:15.317Z,2.95
2016-12-22T14:47:24.330Z,2.88
2016-12-22T14:48:33.028Z,2.91
2016-12-22T14:49:41.724Z,2.98
2016-12-22T14:50:50.733Z,2.95
2016-12-22T14:51:59.432Z,2.98
2016-12-22T14:53:08.130Z,2.95
2016-12-22T14:54:16.828Z,2.88
2016-12-22T14:55:25.527Z,2.98
2016-12-22T14:56:34.223Z,2.98
2016-12-22T14:57:42.920Z,3.05
2016-12-22T14:58:51.627Z,2.95
2016-12-22T15:00:00.324Z,2.98
2016-12-22T15:01:09.042Z,2.98
2016-12-22T15:02:17.740Z,3
2016-12-22T15:03:26.460Z,2.94
2016-12-22T15:04:35.160Z,3
2016-12-22T15:05:43.856Z,3.03
2016-12-22T15:06:52.552Z,2.98
2016-12-22T15:08:01.251Z,2.97
2016-12-22T15:09:09.947Z,3
2016-12-22T15:10:18.644Z,3
2016-12-22T15:11:27.348Z,2.98
2016-12-22T15:12:36.043Z,2.98
2016-12-22T15:13:44.741Z,3.01
2016-12-22T15:14:53.435Z,3.09
2016-12-22T15:16:02.135Z,3.11
2016-12-22T15:17:10.834Z,3.11
2016-12-22T15:18:19.551Z,3.16
2016-12-22T15:19:28.285Z,3.15
2016-12-22T15:20:37.016Z,3.19
2016-12-22T15:21:45.712Z,3.16
2016-12-22T15:22:54.408Z,3.15